Time;durP1;ratioP1;P1;durP2;ratioP2;P2;SDS_P1;SDS_P2;PMS_P1;PMS_P2;Temp;Humidity;BMP_temperature;BMP_pressure;BME280_temperature;BME280_humidity;BME280_pressure;Samples;Min_cycle;Max_cycle;Signal;HPM_P1;HPM_P2
2022/11/05 00:09:46;;;;;;;17.27;6.32;;;7.80;99.90;;;;;;4979115;28;19957;-77
2022/11/05 00:17:43;;;;;;;15.77;6.28;;;7.70;99.90;;;;;;4985944;28;20066;-77
2022/11/05 00:20:12;;;;;;;20.23;6.95;;;7.70;99.90;;;;;;4984454;28;20031;-78
2022/11/05 00:25:22;;;;;;;19.27;6.93;;;7.60;99.90;;;;;;4986382;28;20115;-78
2022/11/05 00:27:52;;;;;;;16.52;6.63;;;7.70;99.90;;;;;;4983521;28;20080;-77
2022/11/05 00:30:21;;;;;;;23.90;5.65;;;7.60;99.90;;;;;;4985177;28;20055;-77
2022/11/05 00:32:48;;;;;;;17.35;6.75;;;7.60;99.90;;;;;;4968357;28;20027;-78
2022/11/05 00:35:15;;;;;;;15.50;6.47;;;7.70;99.90;;;;;;4985388;28;20027;-76
2022/11/05 00:37:41;;;;;;;23.77;6.30;;;7.60;99.90;;;;;;4985571;28;20039;-77
2022/11/05 00:40:08;;;;;;;13.00;5.65;;;7.60;99.90;;;;;;4985519;28;20031;-78
2022/11/05 00:45:18;;;;;;;15.90;6.28;;;7.60;99.90;;;;;;4985360;28;20100;-79
2022/11/05 00:50:28;;;;;;;15.63;6.05;;;7.60;99.90;;;;;;4986111;28;20074;-78
2022/11/05 00:52:55;;;;;;;20.10;6.35;;;7.60;99.90;;;;;;4968279;28;20035;-78
2022/11/05 00:55:33;;;;;;;20.50;5.97;;;7.70;99.90;;;;;;4984186;28;20037;-78
2022/11/05 00:58:01;;;;;;;18.60;5.95;;;7.50;99.90;;;;;;4985208;28;20030;-78
2022/11/05 01:00:29;;;;;;;20.67;6.30;;;7.60;99.90;;;;;;4968239;28;20047;-79
2022/11/05 01:03:03;;;;;;;26.50;6.50;;;7.60;99.90;;;;;;4985404;28;20379;-79
2022/11/05 01:05:30;;;;;;;15.90;5.45;;;7.60;99.90;;;;;;4968111;28;20089;-80
2022/11/05 01:07:56;;;;;;;14.15;5.43;;;7.50;99.90;;;;;;4980121;28;20101;-77
2022/11/05 01:10:22;;;;;;;23.38;5.78;;;7.50;99.90;;;;;;4984709;28;20027;-77
2022/11/05 01:12:49;;;;;;;13.35;5.60;;;7.60;99.90;;;;;;4967769;28;20030;-77
2022/11/05 01:15:15;;;;;;;14.75;5.50;;;7.50;99.90;;;;;;4985244;28;20030;-79
2022/11/05 01:17:41;;;;;;;14.13;5.55;;;7.50;99.90;;;;;;4984803;28;20039;-78
2022/11/05 01:20:07;;;;;;;23.08;6.05;;;7.60;99.90;;;;;;4967696;28;20122;-78
2022/11/05 01:22:33;;;;;;;13.13;5.25;;;7.50;99.90;;;;;;4968610;28;20079;-79
2022/11/05 01:24:58;;;;;;;18.75;5.55;;;7.40;99.90;;;;;;4965506;28;20027;-77
2022/11/05 01:27:27;;;;;;;21.00;5.93;;;7.40;99.90;;;;;;4966133;29;20031;-78
2022/11/05 01:29:53;;;;;;;15.85;5.47;;;7.40;99.90;;;;;;4965401;29;20027;-77
2022/11/05 01:32:18;;;;;;;15.68;5.65;;;7.40;99.90;;;;;;4964102;28;20112;-77
2022/11/05 01:34:44;;;;;;;15.02;5.30;;;7.30;99.90;;;;;;4967454;28;20063;-78
2022/11/05 01:37:09;;;;;;;13.98;5.78;;;7.40;99.90;;;;;;4984563;28;20034;-77
2022/11/05 01:39:35;;;;;;;10.73;4.75;;;7.30;99.90;;;;;;4984748;28;20027;-78
2022/11/05 01:42:01;;;;;;;21.55;5.53;;;7.30;99.90;;;;;;4967676;28;20027;-78
2022/11/05 01:44:48;;;;;;;21.92;4.53;;;7.30;99.90;;;;;;4967884;28;20502;-77
2022/11/05 01:47:37;;;;;;;18.20;5.45;;;7.30;99.90;;;;;;4984396;28;20061;-78
2022/11/05 01:50:16;;;;;;;14.32;5.57;;;7.30;99.90;;;;;;4975411;28;20039;-77
2022/11/05 01:52:42;;;;;;;17.27;5.55;;;7.30;99.90;;;;;;4987973;28;20027;-79
2022/11/05 01:55:09;;;;;;;20.23;5.20;;;7.30;99.90;;;;;;4987313;28;20033;-78
2022/11/05 01:57:34;;;;;;;9.48;4.88;;;7.30;99.90;;;;;;4970980;28;20046;-77
2022/11/05 02:00:01;;;;;;;13.75;5.18;;;7.20;99.90;;;;;;4986797;28;20027;-79
2022/11/05 02:02:28;;;;;;;17.17;5.40;;;7.30;99.90;;;;;;4987426;28;20031;-77
2022/11/05 02:05:00;;;;;;;20.98;5.03;;;7.30;99.90;;;;;;4988947;28;20086;-78
2022/11/05 02:07:28;;;;;;;14.65;4.68;;;7.20;99.90;;;;;;4988798;28;20078;-78
2022/11/05 02:10:04;;;;;;;17.60;5.13;;;7.20;99.90;;;;;;4989593;28;20061;-78
2022/11/05 02:12:32;;;;;;;14.20;5.03;;;7.20;99.90;;;;;;4971599;28;20043;-78
2022/11/05 02:14:58;;;;;;;14.65;5.50;;;7.20;99.90;;;;;;4988329;28;20030;-78
2022/11/05 02:17:30;;;;;;;14.98;5.00;;;7.30;99.90;;;;;;4988614;28;20043;-77
2022/11/05 02:20:13;;;;;;;15.95;5.30;;;7.20;99.90;;;;;;4971165;28;20034;-79
2022/11/05 02:23:27;;;;;;;20.63;5.03;;;7.20;99.90;;;;;;4987800;28;20039;-78
2022/11/05 02:26:13;;;;;;;14.05;5.30;;;7.10;99.90;;;;;;4903187;28;20138;-79
2022/11/05 02:28:42;;;;;;;19.70;4.70;;;7.20;99.90;;;;;;4987409;28;20142;-79
2022/11/05 02:31:32;;;;;;;12.40;4.45;;;7.10;99.90;;;;;;4970424;28;20488;-78
2022/11/05 02:34:32;;;;;;;25.50;4.97;;;7.10;99.90;;;;;;4988268;28;20030;-78
2022/11/05 02:37:23;;;;;;;14.02;4.82;;;7.20;99.90;;;;;;4970465;28;20050;-78
2022/11/05 02:40:12;;;;;;;20.52;5.93;;;7.10;99.90;;;;;;4970376;28;20098;-78
2022/11/05 02:43:06;;;;;;;18.58;4.85;;;7.10;99.90;;;;;;4970335;28;20434;-78
2022/11/05 02:45:47;;;;;;;13.10;4.90;;;7.10;99.90;;;;;;4965117;28;20035;-78
2022/11/05 02:48:16;;;;;;;14.15;4.45;;;7.10;99.90;;;;;;4987764;28;20035;-79
2022/11/05 02:50:57;;;;;;;19.83;5.35;;;7.20;99.90;;;;;;4970120;28;20031;-78
2022/11/05 02:53:44;;;;;;;14.00;5.30;;;7.10;99.90;;;;;;4987902;28;20055;-77
2022/11/05 02:56:21;;;;;;;18.33;5.65;;;7.10;99.90;;;;;;4987674;28;20039;-77
2022/11/05 02:58:46;;;;;;;14.98;4.97;;;7.00;99.90;;;;;;4969678;28;20053;-77
2022/11/05 03:01:12;;;;;;;12.10;5.40;;;7.00;99.90;;;;;;4987378;28;20019;-77
2022/11/05 03:04:03;;;;;;;13.00;5.53;;;7.00;99.90;;;;;;4967930;28;20027;-77
2022/11/05 03:06:38;;;;;;;18.33;5.68;;;7.00;99.90;;;;;;4978014;28;20104;-77
2022/11/05 03:09:25;;;;;;;17.23;5.50;;;6.90;99.90;;;;;;4987347;28;20391;-77
2022/11/05 03:11:53;;;;;;;16.88;5.60;;;6.90;99.90;;;;;;4969637;28;20046;-78
2022/11/05 03:14:37;;;;;;;18.98;5.15;;;6.90;99.90;;;;;;4987482;28;20105;-76
2022/11/05 03:17:26;;;;;;;13.52;5.75;;;6.90;99.90;;;;;;4987032;28;20106;-78
2022/11/05 03:20:09;;;;;;;22.70;5.15;;;6.90;99.90;;;;;;4969947;28;20034;-77
2022/11/05 03:22:40;;;;;;;12.02;5.00;;;6.80;99.90;;;;;;4968423;28;20050;-77
2022/11/05 03:25:13;;;;;;;19.65;6.20;;;6.80;99.90;;;;;;4965594;28;20391;-77
2022/11/05 03:27:45;;;;;;;9.38;4.28;;;6.80;99.90;;;;;;4978985;28;20394;-77
2022/11/05 03:30:13;;;;;;;17.67;4.95;;;6.80;99.90;;;;;;4984661;28;20031;-75
2022/11/05 03:32:43;;;;;;;14.68;4.97;;;6.80;99.90;;;;;;4985779;28;20047;-76
2022/11/05 03:35:21;;;;;;;13.40;4.72;;;6.80;99.90;;;;;;4986081;28;20081;-77
2022/11/05 03:37:50;;;;;;;15.00;4.72;;;6.70;99.90;;;;;;4969028;28;20031;-77
2022/11/05 03:40:20;;;;;;;9.75;4.13;;;6.80;99.90;;;;;;4986628;28;20032;-75
2022/11/05 03:42:51;;;;;;;13.00;5.10;;;6.70;99.90;;;;;;4987003;28;20098;-76
2022/11/05 03:45:22;;;;;;;15.27;4.50;;;6.80;99.90;;;;;;4986579;28;20034;-77
2022/11/05 03:47:51;;;;;;;13.95;4.78;;;6.80;99.90;;;;;;4986428;28;20723;-76
2022/11/05 03:50:19;;;;;;;11.45;4.30;;;6.80;99.90;;;;;;4986575;28;20023;-77
2022/11/05 03:52:51;;;;;;;21.00;4.65;;;6.80;99.90;;;;;;4986315;28;20550;-79
2022/11/05 03:55:17;;;;;;;21.33;6.10;;;6.80;99.90;;;;;;4986802;28;20547;-75
2022/11/05 03:57:47;;;;;;;20.25;6.35;;;6.70;99.90;;;;;;4986364;28;20045;-73
2022/11/05 04:00:13;;;;;;;21.95;6.88;;;6.80;99.90;;;;;;4968562;28;20035;-77
2022/11/05 04:02:40;;;;;;;31.20;7.55;;;6.80;99.90;;;;;;4986530;28;20034;-78
2022/11/05 04:05:06;;;;;;;23.17;8.07;;;6.90;99.90;;;;;;4985186;28;20035;-77
2022/11/05 04:13:31;;;;;;;19.80;5.60;;;6.90;99.90;;;;;;4905757;29;20024;-78
2022/11/05 04:18:44;;;;;;;13.90;4.20;;;6.80;99.90;;;;;;4943356;29;20951;-77
2022/11/05 04:24:07;;;;;;;12.88;5.90;;;6.80;99.90;;;;;;4966869;28;20507;-77
2022/11/05 04:26:42;;;;;;;17.60;4.88;;;6.70;99.90;;;;;;4949700;28;20023;-79
2022/11/05 04:31:53;;;;;;;16.05;5.18;;;6.70;99.90;;;;;;4967059;29;20086;-78
2022/11/05 04:34:20;;;;;;;16.42;6.30;;;6.70;99.90;;;;;;4965363;28;20120;-77
2022/11/05 04:36:50;;;;;;;22.65;6.50;;;6.70;99.90;;;;;;4966423;28;20122;-78
2022/11/05 04:39:17;;;;;;;14.45;5.05;;;6.70;99.90;;;;;;4984768;28;20033;-78
2022/11/05 04:41:44;;;;;;;16.98;5.90;;;6.60;99.90;;;;;;4962640;28;20023;-78
2022/11/05 04:44:09;;;;;;;13.93;4.95;;;6.60;99.90;;;;;;4964270;28;20035;-79
2022/11/05 04:46:35;;;;;;;14.50;4.00;;;6.60;99.90;;;;;;4967499;28;20114;-78
2022/11/05 04:49:01;;;;;;;11.82;4.28;;;6.60;99.90;;;;;;4952670;28;20027;-78
2022/11/05 04:51:27;;;;;;;15.38;4.20;;;6.60;99.90;;;;;;4968309;28;20026;-78
2022/11/05 04:53:59;;;;;;;8.35;3.95;;;6.60;99.90;;;;;;4981551;28;20019;-77
2022/11/05 04:56:25;;;;;;;11.95;4.13;;;6.60;99.90;;;;;;4963681;28;20468;-79
2022/11/05 04:58:52;;;;;;;8.88;3.38;;;6.60;99.90;;;;;;4965234;28;20539;-78
2022/11/05 05:01:21;;;;;;;11.25;3.42;;;6.50;99.90;;;;;;4966143;28;20039;-77
2022/11/05 05:03:48;;;;;;;11.05;3.55;;;6.50;99.90;;;;;;4948479;29;20461;-76
2022/11/05 05:06:14;;;;;;;11.80;4.07;;;6.50;99.90;;;;;;4966682;28;20027;-76
2022/11/05 05:08:40;;;;;;;16.42;4.78;;;6.50;99.90;;;;;;4964880;28;20075;-77
2022/11/05 05:11:09;;;;;;;11.68;3.88;;;6.50;99.90;;;;;;4964205;28;20023;-78
2022/11/05 05:13:35;;;;;;;10.45;3.95;;;6.50;99.90;;;;;;4965257;28;20086;-77
2022/11/05 05:16:06;;;;;;;13.05;3.85;;;6.50;99.90;;;;;;4948520;29;20027;-77
2022/11/05 05:18:32;;;;;;;12.27;3.53;;;6.50;99.90;;;;;;4948266;29;20035;-78
2022/11/05 05:23:43;;;;;;;8.80;3.70;;;6.50;99.90;;;;;;4965512;29;20345;-77
2022/11/05 05:26:09;;;;;;;13.13;3.53;;;6.40;99.90;;;;;;4947778;29;20023;-78
2022/11/05 05:28:35;;;;;;;13.73;3.28;;;6.40;99.90;;;;;;4965714;29;20069;-78
2022/11/05 05:31:01;;;;;;;10.55;3.40;;;6.40;99.90;;;;;;4965845;29;20040;-77
2022/11/05 05:33:27;;;;;;;14.15;3.78;;;6.40;99.90;;;;;;4966040;29;20027;-78
2022/11/05 05:35:56;;;;;;;12.52;3.50;;;6.40;99.90;;;;;;4952227;28;20027;-77
2022/11/05 05:38:21;;;;;;;13.48;3.58;;;6.40;99.90;;;;;;4966684;28;20065;-77
2022/11/05 05:40:51;;;;;;;9.98;3.88;;;6.40;99.90;;;;;;4985129;28;20086;-76
2022/11/05 05:43:16;;;;;;;9.32;3.90;;;6.40;99.90;;;;;;4985105;28;20082;-76
2022/11/05 05:45:42;;;;;;;9.15;3.20;;;6.50;99.90;;;;;;4967452;28;20027;-77
2022/11/05 05:48:08;;;;;;;8.68;3.42;;;6.50;99.90;;;;;;4985078;28;20058;-77
2022/11/05 05:50:34;;;;;;;11.43;3.38;;;6.30;99.90;;;;;;4984825;28;20042;-77
2022/11/05 05:52:59;;;;;;;11.05;4.43;;;6.40;99.90;;;;;;4978122;28;20038;-75
2022/11/05 05:55:25;;;;;;;11.52;3.40;;;6.30;99.90;;;;;;4964307;28;20027;-78
2022/11/05 05:57:52;;;;;;;14.88;3.63;;;6.30;99.90;;;;;;4984896;28;20046;-78
2022/11/05 06:00:18;;;;;;;8.70;3.45;;;6.40;99.90;;;;;;4984840;28;20118;-77
2022/11/05 06:02:43;;;;;;;13.32;3.67;;;6.30;99.90;;;;;;4967539;28;20077;-78
2022/11/05 06:05:09;;;;;;;6.88;3.40;;;6.30;99.90;;;;;;4962527;28;20031;-77
2022/11/05 06:07:35;;;;;;;9.52;3.40;;;6.30;99.90;;;;;;4964171;28;20047;-76
2022/11/05 06:10:01;;;;;;;12.02;3.67;;;6.40;99.90;;;;;;4947836;29;20457;-77
2022/11/05 06:12:28;;;;;;;20.83;4.00;;;6.30;99.90;;;;;;4965374;29;20408;-79
2022/11/05 06:14:54;;;;;;;13.38;3.40;;;6.30;99.90;;;;;;4947654;29;20099;-77
2022/11/05 06:17:20;;;;;;;8.38;3.85;;;6.30;99.90;;;;;;4965172;29;20090;-77
2022/11/05 06:19:46;;;;;;;12.10;3.40;;;6.50;99.90;;;;;;4947699;29;20519;-78
2022/11/05 06:22:12;;;;;;;12.40;4.30;;;6.30;99.90;;;;;;4964243;28;20027;-78
2022/11/05 06:24:38;;;;;;;14.50;4.45;;;6.20;99.90;;;;;;4965224;28;20105;-78
2022/11/05 06:27:04;;;;;;;19.48;4.63;;;6.20;99.90;;;;;;4971124;28;20033;-78
2022/11/05 06:29:29;;;;;;;9.50;4.10;;;6.10;99.90;;;;;;4981468;28;20559;-78
2022/11/05 06:31:55;;;;;;;11.25;4.40;;;6.00;99.90;;;;;;4965138;28;20030;-77
2022/11/05 06:34:21;;;;;;;10.15;4.68;;;6.00;99.90;;;;;;4965407;28;20071;-76
2022/11/05 06:36:46;;;;;;;27.15;4.53;;;6.00;99.90;;;;;;4966157;28;20074;-77
2022/11/05 06:39:12;;;;;;;17.10;4.35;;;5.80;99.90;;;;;;4970235;28;20769;-76
2022/11/05 06:41:38;;;;;;;15.88;4.45;;;5.80;99.90;;;;;;4969692;28;20030;-77
2022/11/05 06:44:04;;;;;;;10.93;4.07;;;5.80;99.90;;;;;;4981784;28;20027;-76
2022/11/05 06:46:29;;;;;;;8.35;4.28;;;5.70;99.90;;;;;;4983711;28;20065;-77
2022/11/05 06:48:55;;;;;;;15.27;4.90;;;5.70;99.90;;;;;;4969876;28;20043;-79
2022/11/05 06:51:21;;;;;;;10.55;4.22;;;5.80;99.90;;;;;;4969121;28;20067;-76
2022/11/05 06:53:47;;;;;;;15.07;4.65;;;5.70;99.90;;;;;;4969087;28;20037;-78
2022/11/05 06:56:13;;;;;;;12.23;4.50;;;5.60;99.90;;;;;;4969338;28;20030;-76
2022/11/05 06:58:38;;;;;;;13.45;3.75;;;5.60;99.90;;;;;;4986868;28;20046;-76
2022/11/05 07:01:07;;;;;;;11.10;4.35;;;5.70;99.90;;;;;;4986974;28;20030;-78
2022/11/05 07:03:34;;;;;;;11.38;4.85;;;5.70;99.90;;;;;;4970096;28;20023;-78
2022/11/05 07:06:00;;;;;;;15.23;5.18;;;5.80;99.90;;;;;;4970320;28;20035;-77
2022/11/05 07:08:30;;;;;;;19.98;5.32;;;5.80;99.90;;;;;;4986966;28;20121;-77
2022/11/05 07:10:56;;;;;;;15.52;4.75;;;5.90;99.90;;;;;;4970209;28;20057;-78
2022/11/05 07:13:22;;;;;;;16.13;5.43;;;6.00;99.90;;;;;;4969804;28;20122;-76
2022/11/05 07:15:47;;;;;;;15.90;5.25;;;6.20;99.90;;;;;;4987338;28;20027;-77
2022/11/05 07:18:13;;;;;;;16.00;6.03;;;6.50;99.90;;;;;;4981552;28;20047;-77
2022/11/05 07:20:39;;;;;;;18.35;5.90;;;6.60;99.90;;;;;;4986372;28;20035;-77
2022/11/05 07:23:11;;;;;;;18.17;6.32;;;6.70;99.90;;;;;;4964657;28;20035;-74
2022/11/05 07:25:37;;;;;;;13.48;5.13;;;6.90;99.90;;;;;;4985811;28;20042;-76
2022/11/05 07:28:03;;;;;;;15.65;6.22;;;7.00;99.90;;;;;;4969437;28;20027;-77
2022/11/05 07:30:30;;;;;;;13.02;5.28;;;7.00;99.90;;;;;;4987233;28;20027;-77
2022/11/05 07:32:59;;;;;;;15.63;5.68;;;7.10;99.90;;;;;;4968983;28;20476;-80
2022/11/05 07:35:25;;;;;;;19.48;6.20;;;7.10;99.90;;;;;;4984595;28;20045;-78
2022/11/05 07:37:53;;;;;;;15.02;5.38;;;7.20;99.90;;;;;;4984650;28;20130;-77
2022/11/05 07:40:21;;;;;;;10.57;4.82;;;7.20;99.90;;;;;;4985386;28;20034;-79
2022/11/05 07:42:49;;;;;;;13.15;5.25;;;7.30;99.90;;;;;;4967155;28;20035;-78
2022/11/05 07:45:15;;;;;;;15.50;5.60;;;7.30;99.90;;;;;;4985022;28;20039;-78
2022/11/05 07:47:49;;;;;;;15.48;6.65;;;7.30;99.90;;;;;;4985154;28;20114;-79
2022/11/05 07:50:21;;;;;;;17.63;5.38;;;7.30;99.90;;;;;;4963483;28;20069;-79
2022/11/05 07:52:47;;;;;;;10.95;5.60;;;7.40;99.90;;;;;;4966829;28;20037;-79
2022/11/05 07:55:14;;;;;;;13.40;5.85;;;7.50;99.90;;;;;;4968971;28;20054;-79
2022/11/05 07:57:45;;;;;;;12.55;5.50;;;7.60;99.90;;;;;;4966472;29;20043;-79
2022/11/05 08:00:13;;;;;;;13.07;6.10;;;7.70;99.90;;;;;;4949349;29;20042;-79
2022/11/05 08:02:39;;;;;;;18.42;5.97;;;7.70;99.90;;;;;;4950276;28;20046;-74
2022/11/05 08:05:05;;;;;;;11.25;5.90;;;7.90;99.90;;;;;;4967527;28;20491;-78
2022/11/05 08:07:31;;;;;;;12.80;5.55;;;8.20;99.90;;;;;;4984195;28;20153;-80
2022/11/05 08:09:57;;;;;;;16.17;4.70;;;8.40;99.90;;;;;;4967105;28;20026;-77
2022/11/05 08:12:23;;;;;;;11.05;4.90;;;8.60;99.90;;;;;;4980489;28;20046;-79
2022/11/05 08:14:50;;;;;;;12.30;5.07;;;8.80;99.90;;;;;;4967595;28;20681;-76
2022/11/05 08:17:16;;;;;;;13.10;5.05;;;8.90;99.90;;;;;;4967879;28;20499;-80
2022/11/05 08:19:42;;;;;;;10.13;4.45;;;9.10;99.90;;;;;;4983604;28;20074;-76
2022/11/05 08:22:07;;;;;;;14.27;4.80;;;9.20;99.90;;;;;;4982703;28;20039;-79
2022/11/05 08:24:33;;;;;;;11.07;4.22;;;9.20;99.90;;;;;;4967214;28;20038;-79
2022/11/05 08:26:59;;;;;;;13.93;4.28;;;9.30;99.90;;;;;;4983887;28;20139;-79
2022/11/05 08:29:30;;;;;;;14.13;4.43;;;9.40;99.90;;;;;;4985211;28;20061;-80
2022/11/05 08:31:56;;;;;;;15.25;7.57;;;9.40;99.90;;;;;;4984361;28;20038;-75
2022/11/05 08:34:22;;;;;;;12.57;6.55;;;9.50;99.90;;;;;;4983114;28;20065;-78
2022/11/05 08:36:47;;;;;;;11.68;5.80;;;9.50;99.90;;;;;;4964087;28;20031;-78
2022/11/05 08:39:13;;;;;;;19.95;5.53;;;9.70;99.90;;;;;;4981865;28;20031;-75
2022/11/05 08:41:39;;;;;;;13.75;4.20;;;9.80;99.90;;;;;;4967044;28;20030;-77
2022/11/05 08:44:07;;;;;;;11.38;3.95;;;9.90;99.90;;;;;;4964245;28;20041;-77
2022/11/05 08:46:37;;;;;;;13.05;4.03;;;10.00;99.90;;;;;;4976599;28;20014;-77
2022/11/05 08:49:04;;;;;;;15.35;4.50;;;10.00;99.90;;;;;;4977016;28;20034;-78
2022/11/05 08:51:30;;;;;;;10.63;4.28;;;10.00;99.90;;;;;;4966244;28;20046;-74
2022/11/05 08:53:56;;;;;;;9.85;4.05;;;10.00;99.90;;;;;;4961787;28;20026;-77
2022/11/05 08:56:22;;;;;;;8.55;4.28;;;10.00;99.90;;;;;;4983074;28;20038;-76
2022/11/05 08:58:48;;;;;;;8.93;4.30;;;10.10;99.90;;;;;;4984122;28;20534;-78
2022/11/05 09:01:14;;;;;;;7.22;3.97;;;10.10;99.90;;;;;;4984116;28;20086;-78
2022/11/05 09:03:39;;;;;;;11.32;3.80;;;10.10;99.90;;;;;;4984594;28;20034;-80
2022/11/05 09:06:05;;;;;;;10.20;3.53;;;10.10;99.90;;;;;;4982989;28;20027;-77
2022/11/05 09:08:31;;;;;;;11.32;3.60;;;10.20;99.90;;;;;;4980854;28;20070;-77
2022/11/05 09:10:57;;;;;;;15.55;4.65;;;10.20;99.90;;;;;;4982899;28;20368;-77
2022/11/05 09:13:29;;;;;;;13.63;4.35;;;10.30;99.90;;;;;;4964454;28;20030;-76
2022/11/05 09:16:01;;;;;;;12.15;5.25;;;10.20;99.90;;;;;;4982765;28;20041;-78
2022/11/05 09:18:27;;;;;;;16.92;7.85;;;10.20;99.90;;;;;;4984451;28;20034;-78
2022/11/05 09:20:53;;;;;;;11.00;6.03;;;10.20;99.90;;;;;;4984721;28;20057;-77
2022/11/05 09:23:18;;;;;;;13.32;5.22;;;10.30;99.90;;;;;;4980361;28;20023;-76
2022/11/05 09:25:44;;;;;;;11.88;5.30;;;10.40;99.90;;;;;;4961867;28;20026;-78
2022/11/05 09:28:18;;;;;;;14.95;4.55;;;10.40;99.90;;;;;;4978672;28;20031;-76
2022/11/05 09:30:49;;;;;;;;;;;10.40;99.90;;;;;;4975879;28;20054;-77
2022/11/05 09:33:17;;;;;;;11.68;3.78;;;10.40;99.90;;;;;;4969012;28;19993;-76
2022/11/05 09:35:43;;;;;;;17.67;4.50;;;10.50;99.90;;;;;;4950808;28;20026;-77
2022/11/05 09:38:08;;;;;;;11.75;3.65;;;10.60;99.90;;;;;;4962271;28;20047;-73
2022/11/05 09:41:10;;;;;;;14.35;4.15;;;10.70;99.90;;;;;;4978354;28;20543;-76
2022/11/05 09:43:43;;;;;;;7.85;4.10;;;10.70;99.90;;;;;;4949282;29;20083;-75
2022/11/05 09:46:53;;;;;;;10.10;4.57;;;10.80;99.90;;;;;;4973917;28;20041;-76
2022/11/05 09:49:37;;;;;;;13.00;3.60;;;10.90;99.90;;;;;;4965326;28;20023;-77
2022/11/05 09:52:03;;;;;;;8.38;3.30;;;10.90;99.90;;;;;;4966262;29;20028;-80
2022/11/05 09:54:30;;;;;;;14.50;3.85;;;11.00;99.90;;;;;;4948507;29;20066;-76
2022/11/05 09:56:57;;;;;;;10.90;3.75;;;10.90;99.90;;;;;;4956630;28;20045;-75
2022/11/05 09:59:32;;;;;;;9.95;3.67;;;11.10;99.90;;;;;;4985276;28;20035;-80
2022/11/05 10:02:16;;;;;;;8.98;3.17;;;11.10;99.90;;;;;;4984458;28;20091;-76
2022/11/05 10:04:47;;;;;;;10.65;3.13;;;11.20;99.90;;;;;;4984930;28;20083;-77
2022/11/05 10:07:17;;;;;;;15.07;4.00;;;11.20;99.90;;;;;;4983896;28;20050;-76
2022/11/05 10:09:47;;;;;;;12.27;3.40;;;11.20;99.90;;;;;;4983025;28;20483;-75
2022/11/05 10:12:19;;;;;;;7.22;4.13;;;11.30;99.90;;;;;;4971483;28;20031;-73
2022/11/05 10:15:17;;;;;;;10.77;4.90;;;11.40;99.90;;;;;;4964739;28;20660;-77
2022/11/05 10:17:48;;;;;;;9.18;4.15;;;11.50;99.90;;;;;;4982842;28;20054;-78
2022/11/05 10:20:26;;;;;;;12.98;5.93;;;11.60;99.90;;;;;;4985251;28;20031;-74
2022/11/05 10:22:58;;;;;;;8.15;4.05;;;11.70;99.90;;;;;;4987895;28;20023;-78
2022/11/05 10:25:30;;;;;;;7.90;3.50;;;11.80;99.90;;;;;;4970363;28;20089;-76
2022/11/05 10:27:58;;;;;;;8.15;3.53;;;11.90;99.90;;;;;;4986803;28;20364;-76
2022/11/05 10:30:23;;;;;;;9.85;3.50;;;11.90;99.90;;;;;;4986085;28;20026;-74
2022/11/05 10:32:55;;;;;;;8.35;3.30;;;12.00;99.90;;;;;;4970575;28;20034;-75
2022/11/05 10:35:22;;;;;;;9.77;3.38;;;12.10;99.90;;;;;;4987112;28;20045;-77
2022/11/05 10:37:50;;;;;;;8.35;3.60;;;12.20;99.90;;;;;;4969925;28;20054;-78
2022/11/05 10:40:21;;;;;;;12.35;3.95;;;12.30;99.90;;;;;;4985404;28;20026;-72
2022/11/05 10:42:56;;;;;;;12.00;3.60;;;12.30;99.90;;;;;;4986610;28;20023;-75
2022/11/05 10:45:37;;;;;;;8.52;3.47;;;12.40;99.90;;;;;;4986774;28;20061;-76
2022/11/05 10:48:15;;;;;;;10.13;4.53;;;12.40;99.90;;;;;;4965034;28;20040;-77
2022/11/05 10:50:43;;;;;;;15.38;4.43;;;12.40;99.90;;;;;;4980142;28;20030;-76
2022/11/05 10:53:20;;;;;;;9.50;4.00;;;12.40;99.90;;;;;;4968750;28;20031;-80
2022/11/05 10:55:48;;;;;;;11.70;3.42;;;12.60;99.90;;;;;;4975609;28;20034;-73
2022/11/05 10:58:16;;;;;;;9.65;3.20;;;12.60;99.90;;;;;;4983542;28;20422;-76
2022/11/05 11:00:52;;;;;;;12.23;3.92;;;12.70;99.90;;;;;;4968880;28;20089;-72
2022/11/05 11:03:39;;;;;;;8.90;4.50;;;12.70;99.90;;;;;;4984013;28;20039;-76
2022/11/05 11:06:29;;;;;;;11.43;4.35;;;12.70;99.90;;;;;;4966707;28;20034;-77
2022/11/05 11:08:59;;;;;;;11.05;4.63;;;12.80;99.90;;;;;;4968565;28;20058;-80
2022/11/05 11:11:37;;;;;;;15.25;7.07;;;12.90;99.90;;;;;;4970065;28;20034;-75
2022/11/05 11:14:16;;;;;;;10.68;4.32;;;13.10;99.90;;;;;;4985202;28;20027;-77
2022/11/05 11:16:45;;;;;;;11.07;3.83;;;13.20;99.90;;;;;;4987184;28;20103;-76
2022/11/05 11:19:34;;;;;;;9.27;3.42;;;13.40;99.90;;;;;;4985108;28;20035;-75
2022/11/05 11:22:03;;;;;;;10.23;5.07;;;13.70;99.90;;;;;;4983451;28;20093;-77
2022/11/05 11:24:56;;;;;;;12.43;3.72;;;14.10;99.90;;;;;;4977613;28;20473;-75
2022/11/05 11:27:25;;;;;;;11.38;5.22;;;14.60;99.90;;;;;;4974584;28;20043;-77
2022/11/05 11:30:00;;;;;;;7.63;3.83;;;15.00;99.90;;;;;;4969476;28;20034;-80
2022/11/05 11:32:38;;;;;;;12.07;3.22;;;15.40;99.90;;;;;;4978481;28;20085;-75
2022/11/05 11:35:29;;;;;;;8.48;3.47;;;15.80;99.90;;;;;;4976937;28;20019;-77
2022/11/05 11:38:01;;;;;;;8.15;2.97;;;16.10;99.90;;;;;;4971262;28;20073;-76
2022/11/05 11:40:37;;;;;;;11.30;3.15;;;16.20;99.90;;;;;;4958972;28;20846;-75
2022/11/05 11:43:11;;;;;;;8.88;3.25;;;16.00;99.90;;;;;;4970738;28;20522;-74
2022/11/05 11:45:52;;;;;;;9.38;3.85;;;16.00;99.90;;;;;;4987841;28;20030;-75
2022/11/05 11:48:30;;;;;;;8.27;3.90;;;15.80;99.90;;;;;;4985684;28;20066;-75
2022/11/05 11:50:58;;;;;;;13.02;3.33;;;15.90;99.90;;;;;;4986543;28;20081;-78
2022/11/05 11:53:33;;;;;;;7.88;3.15;;;16.00;99.90;;;;;;4969528;28;20034;-73
2022/11/05 11:56:16;;;;;;;7.40;3.10;;;16.10;99.90;;;;;;4969342;28;20031;-75
2022/11/05 11:58:50;;;;;;;6.38;2.80;;;16.10;99.90;;;;;;4986370;28;20035;-74
2022/11/05 12:01:37;;;;;;;12.43;2.60;;;15.80;99.90;;;;;;4969198;28;20091;-75
2022/11/05 12:04:08;;;;;;;8.07;2.90;;;15.50;99.90;;;;;;4986241;28;20046;-76
2022/11/05 12:06:36;;;;;;;7.65;2.97;;;15.50;99.90;;;;;;4968888;28;20034;-75
2022/11/05 12:09:21;;;;;;;8.10;3.30;;;15.60;99.90;;;;;;4968627;28;20077;-79
2022/11/05 12:11:55;;;;;;;8.30;2.72;;;15.50;99.90;;;;;;4984993;28;20026;-77
2022/11/05 12:14:39;;;;;;;9.32;3.10;;;15.30;99.90;;;;;;4985937;28;20058;-80
2022/11/05 12:17:26;;;;;;;8.07;3.00;;;15.30;99.90;;;;;;4978031;28;20035;-75
2022/11/05 12:20:04;;;;;;;6.68;2.92;;;15.20;99.90;;;;;;4965032;28;20031;-78
2022/11/05 12:22:48;;;;;;;7.13;3.00;;;15.00;99.90;;;;;;4953886;28;20031;-77
2022/11/05 12:25:22;;;;;;;7.93;3.53;;;14.80;99.90;;;;;;4966333;29;20472;-79
2022/11/05 12:28:08;;;;;;;13.50;3.58;;;14.50;99.90;;;;;;4948866;29;20032;-81
2022/11/05 12:30:47;;;;;;;9.43;2.95;;;14.30;99.90;;;;;;4966209;29;20030;-81
2022/11/05 12:33:26;;;;;;;11.63;3.03;;;14.10;99.90;;;;;;4948976;29;20023;-76
2022/11/05 12:36:36;;;;;;;8.50;2.83;;;14.10;99.90;;;;;;4952116;28;20031;-77
2022/11/05 12:39:21;;;;;;;10.43;2.90;;;13.90;99.90;;;;;;4948995;28;20057;-73
2022/11/05 12:42:05;;;;;;;;;;;13.80;99.90;;;;;;4966838;28;20058;-79
2022/11/05 12:44:58;;;;;;;6.70;2.80;;;13.70;99.90;;;;;;4981899;28;19917;-79
2022/11/05 12:47:45;;;;;;;9.80;4.15;;;13.90;99.90;;;;;;4957456;28;20039;-78
2022/11/05 12:50:30;;;;;;;7.25;3.20;;;14.00;99.90;;;;;;4957047;29;20039;-74
2022/11/05 12:53:21;;;;;;;7.80;3.05;;;13.90;99.90;;;;;;4965834;28;20070;-76
2022/11/05 12:55:48;;;;;;;6.95;3.47;;;13.90;99.90;;;;;;4963723;28;20058;-79
2022/11/05 12:58:29;;;;;;;8.45;3.33;;;14.00;99.90;;;;;;4985148;28;20248;-77
2022/11/05 13:01:01;;;;;;;10.40;3.08;;;14.20;99.90;;;;;;4966925;28;20041;-77
2022/11/05 13:03:45;;;;;;;5.93;2.50;;;14.40;99.90;;;;;;4967873;28;20025;-78
2022/11/05 13:06:17;;;;;;;10.23;3.20;;;14.60;99.90;;;;;;4984816;28;20031;-78
2022/11/05 13:08:55;;;;;;;7.90;3.05;;;14.50;99.90;;;;;;4967277;28;20085;-77
2022/11/05 13:11:47;;;;;;;6.07;2.85;;;14.20;99.90;;;;;;4967433;28;20027;-76
2022/11/05 13:14:21;;;;;;;8.48;3.55;;;13.80;99.90;;;;;;4967119;28;20035;-78
2022/11/05 13:17:01;;;;;;;14.55;3.40;;;13.50;99.90;;;;;;4984931;28;20335;-75
2022/11/05 13:19:36;;;;;;;5.00;2.97;;;13.40;99.90;;;;;;4985016;28;20031;-78
2022/11/05 13:22:27;;;;;;;7.80;3.03;;;13.20;99.90;;;;;;4985317;28;20027;-77
2022/11/05 13:25:02;;;;;;;5.78;2.83;;;13.10;99.90;;;;;;4968322;28;20027;-81
2022/11/05 13:27:46;;;;;;;6.78;3.55;;;13.20;99.90;;;;;;4967861;28;20046;-78
2022/11/05 13:30:22;;;;;;;6.13;3.40;;;13.30;99.90;;;;;;4985127;28;20472;-76
2022/11/05 13:33:19;;;;;;;11.02;3.97;;;13.20;99.90;;;;;;4967607;28;20049;-80
2022/11/05 13:38:58;;;;;;;9.15;4.35;;;13.00;99.90;;;;;;4984769;28;20053;-76
2022/11/05 13:41:36;;;;;;;10.32;5.07;;;12.90;99.90;;;;;;4985373;28;20039;-78
2022/11/05 13:44:20;;;;;;;12.20;5.57;;;12.80;99.90;;;;;;4982711;28;20062;-76
2022/11/05 13:47:13;;;;;;;24.55;10.20;;;12.80;99.90;;;;;;4982551;28;20038;-74
2022/11/05 13:50:16;;;;;;;6.93;3.88;;;12.70;99.90;;;;;;4987563;28;20027;-79
2022/11/05 13:53:16;;;;;;;8.75;4.05;;;12.70;99.90;;;;;;4985479;28;20031;-80